createdAt,value
2019-02-11T00:00:01.094Z,18
2019-02-11T00:02:02.004Z,16
2019-02-11T00:03:01.122Z,17
2019-02-11T00:04:01.065Z,16
2019-02-11T00:06:01.117Z,15
2019-02-11T00:07:01.060Z,18
2019-02-11T00:08:01.092Z,17
2019-02-11T00:11:01.612Z,18
2019-02-11T00:12:01.100Z,16
2019-02-11T00:13:01.421Z,17
2019-02-11T00:14:01.093Z,15
2019-02-11T00:15:01.098Z,15
2019-02-11T00:17:01.125Z,16
2019-02-11T00:19:01.097Z,17
2019-02-11T00:21:01.093Z,16
2019-02-11T00:23:01.125Z,17
2019-02-11T00:24:01.094Z,18
2019-02-11T00:25:01.095Z,20
2019-02-11T00:26:01.093Z,19
2019-02-11T00:27:01.099Z,20
2019-02-11T00:29:01.127Z,19
2019-02-11T00:30:01.102Z,17
2019-02-11T00:32:01.096Z,15
2019-02-11T00:35:01.125Z,14
2019-02-11T00:36:01.094Z,16
2019-02-11T00:38:01.097Z,17
2019-02-11T00:39:01.098Z,18
2019-02-11T00:40:01.128Z,19
2019-02-11T00:41:01.098Z,20
2019-02-11T00:43:02.129Z,19
2019-02-11T00:44:01.097Z,18
2019-02-11T00:45:01.100Z,18
2019-02-11T00:46:01.102Z,16
2019-02-11T00:47:01.096Z,15
2019-02-11T00:50:01.128Z,16
2019-02-11T00:51:01.095Z,15
2019-02-11T00:52:01.095Z,16
2019-02-11T00:53:01.067Z,17
2019-02-11T00:55:01.162Z,16
2019-02-11T00:56:01.093Z,17
2019-02-11T00:59:01.094Z,16
2019-02-11T01:00:01.148Z,17
2019-02-11T01:02:01.101Z,14
2019-02-11T01:04:01.671Z,15
2019-02-11T01:07:01.125Z,16
2019-02-11T01:08:01.098Z,17
2019-02-11T01:09:01.096Z,18
2019-02-11T01:10:01.095Z,19
2019-02-11T01:12:01.104Z,18
2019-02-11T01:13:01.078Z,19
2019-02-11T01:14:01.080Z,18
2019-02-11T01:15:01.092Z,18
2019-02-11T01:16:01.122Z,16
2019-02-11T01:17:01.048Z,15
2019-02-11T01:18:01.080Z,16
2019-02-11T01:20:01.081Z,18
2019-02-11T01:22:01.104Z,20
2019-02-11T01:25:01.079Z,17
2019-02-11T01:26:01.103Z,16
2019-02-11T01:27:01.080Z,14
2019-02-11T01:28:01.081Z,11
2019-02-11T01:30:02.117Z,13
2019-02-11T01:31:01.117Z,12
2019-02-11T01:33:01.083Z,15
2019-02-11T01:34:01.079Z,14
2019-02-11T01:35:01.080Z,13
2019-02-11T01:36:01.047Z,15
2019-02-11T01:38:01.102Z,13
2019-02-11T01:39:01.078Z,15
2019-02-11T01:41:01.102Z,17
2019-02-11T01:42:01.081Z,18
2019-02-11T01:43:01.077Z,20
2019-02-11T01:44:01.080Z,18
2019-02-11T01:45:01.078Z,19
2019-02-11T01:46:02.170Z,17
2019-02-11T01:47:01.087Z,16
2019-02-11T01:49:01.078Z,17
2019-02-11T01:50:01.078Z,19
2019-02-11T01:52:01.105Z,20
2019-02-11T01:53:01.082Z,21
2019-02-11T01:55:01.077Z,17
2019-02-11T01:56:01.100Z,18
2019-02-11T01:57:01.075Z,19
2019-02-11T01:59:01.076Z,18
2019-02-11T02:00:01.084Z,18
2019-02-11T02:02:01.104Z,16
2019-02-11T02:03:01.078Z,17
2019-02-11T02:04:01.075Z,16
2019-02-11T02:08:01.106Z,18
2019-02-11T02:10:01.074Z,20
2019-02-11T02:12:01.108Z,19
2019-02-11T02:13:01.076Z,18
2019-02-11T02:14:01.077Z,17
2019-02-11T02:15:01.082Z,16
2019-02-11T02:19:01.107Z,17
2019-02-11T02:20:01.078Z,16
2019-02-11T02:21:01.101Z,17
2019-02-11T02:22:01.075Z,18
2019-02-11T02:23:01.077Z,19
2019-02-11T02:24:01.077Z,18
2019-02-11T02:25:01.102Z,19
2019-02-11T02:27:01.080Z,17
2019-02-11T02:28:01.077Z,16
2019-02-11T02:29:02.198Z,15
2019-02-11T02:30:01.082Z,14
2019-02-11T02:31:01.082Z,16
2019-02-11T02:32:01.078Z,17
2019-02-11T02:34:01.076Z,18
2019-02-11T02:35:01.113Z,17
2019-02-11T02:37:01.083Z,18
2019-02-11T02:40:01.081Z,19
2019-02-11T02:41:01.107Z,16
2019-02-11T02:43:01.083Z,17
2019-02-11T02:44:01.087Z,18
2019-02-11T02:45:01.087Z,17
2019-02-11T02:46:01.111Z,18
2019-02-11T02:47:01.080Z,17
2019-02-11T02:48:01.078Z,16
2019-02-11T02:50:01.079Z,18
2019-02-11T02:54:01.113Z,15
2019-02-11T02:55:01.078Z,14
2019-02-11T02:56:01.079Z,16
2019-02-11T02:58:01.083Z,17
2019-02-11T03:00:01.081Z,15
2019-02-11T03:04:01.786Z,14
2019-02-11T03:05:01.119Z,15
2019-02-11T03:06:01.080Z,14
2019-02-11T03:08:01.078Z,16
2019-02-11T03:09:01.083Z,17
2019-02-11T03:11:01.079Z,18
2019-02-11T03:12:01.082Z,17
2019-02-11T03:13:01.088Z,15
2019-02-11T03:14:05.565Z,16
2019-02-11T03:15:01.082Z,17
2019-02-11T03:16:01.081Z,16
2019-02-11T03:17:01.082Z,18
2019-02-11T03:18:01.081Z,19
2019-02-11T03:20:01.088Z,18
2019-02-11T03:21:01.111Z,20
2019-02-11T03:22:01.085Z,18
2019-02-11T03:24:01.083Z,17
2019-02-11T03:25:01.084Z,16
2019-02-11T03:26:01.112Z,15
2019-02-11T03:27:01.089Z,17
2019-02-11T03:28:01.090Z,18
2019-02-11T03:29:01.111Z,20
2019-02-11T03:30:01.116Z,19
2019-02-11T03:32:01.088Z,17
2019-02-11T03:33:01.087Z,15
2019-02-11T03:35:01.086Z,14
2019-02-11T03:36:01.089Z,15
2019-02-11T03:38:01.112Z,16
2019-02-11T03:40:01.088Z,18
2019-02-11T03:42:01.094Z,19
2019-02-11T03:43:01.130Z,18
2019-02-11T03:44:01.094Z,16
2019-02-11T03:45:01.091Z,16
2019-02-11T03:46:01.088Z,15
2019-02-11T03:47:01.090Z,13
2019-02-11T03:52:01.092Z,15
2019-02-11T03:56:01.126Z,16
2019-02-11T03:57:01.095Z,15
2019-02-11T03:58:01.094Z,16
2019-02-11T04:00:01.102Z,15
2019-02-11T04:02:01.090Z,16
2019-02-11T04:03:01.091Z,15
2019-02-11T04:04:01.091Z,17
2019-02-11T04:05:01.091Z,19
2019-02-11T04:08:01.090Z,18
2019-02-11T04:09:01.091Z,17
2019-02-11T04:10:01.098Z,14
2019-02-11T04:13:01.091Z,15
2019-02-11T04:15:01.091Z,18
2019-02-11T04:16:01.095Z,16
2019-02-11T04:17:01.096Z,15
2019-02-11T04:19:01.098Z,16
2019-02-11T04:20:06.095Z,15
2019-02-11T04:21:01.096Z,17
2019-02-11T04:26:02.059Z,18
2019-02-11T04:27:01.094Z,17
2019-02-11T04:28:01.091Z,18
2019-02-11T04:29:01.091Z,16
2019-02-11T04:30:01.092Z,14
2019-02-11T04:32:01.119Z,16
2019-02-11T04:33:01.101Z,15
2019-02-11T04:34:01.095Z,16
2019-02-11T04:37:01.120Z,15
2019-02-11T04:38:01.101Z,16
2019-02-11T04:39:01.094Z,15
2019-02-11T04:40:01.099Z,16
2019-02-11T04:41:01.092Z,17
2019-02-11T04:43:01.121Z,16
2019-02-11T04:45:01.108Z,16
2019-02-11T04:50:01.098Z,18
2019-02-11T04:53:01.141Z,19
2019-02-11T04:56:01.103Z,18
2019-02-11T04:57:01.080Z,19
2019-02-11T04:59:01.079Z,18
2019-02-11T05:00:01.079Z,17
2019-02-11T05:01:01.103Z,16
2019-02-11T05:05:01.080Z,17
2019-02-11T05:06:01.102Z,19
2019-02-11T05:07:01.076Z,18
2019-02-11T05:08:01.079Z,19
2019-02-11T05:09:01.076Z,20
2019-02-11T05:13:01.116Z,19
2019-02-11T05:14:01.083Z,18
2019-02-11T05:15:01.083Z,16
2019-02-11T05:16:01.076Z,14
2019-02-11T05:21:01.076Z,15
2019-02-11T05:22:01.074Z,16
2019-02-11T05:23:01.076Z,17
2019-02-11T05:24:01.073Z,19
2019-02-11T05:25:01.076Z,17
2019-02-11T05:26:01.079Z,18
2019-02-11T05:27:01.121Z,19
2019-02-11T05:29:01.079Z,17
2019-02-11T05:30:01.079Z,19
2019-02-11T05:31:01.087Z,17
2019-02-11T05:32:01.097Z,15
2019-02-11T05:33:01.088Z,14
2019-02-11T05:34:01.082Z,15
2019-02-11T05:36:01.108Z,18
2019-02-11T05:38:01.077Z,19
2019-02-11T05:39:01.080Z,18
2019-02-11T05:40:01.080Z,19
2019-02-11T05:41:01.080Z,18
2019-02-11T05:42:01.114Z,16
2019-02-11T05:43:01.088Z,18
2019-02-11T05:44:01.106Z,17
2019-02-11T05:45:01.081Z,15
2019-02-11T05:47:01.115Z,16
2019-02-11T05:48:01.083Z,14
2019-02-11T05:49:01.402Z,16
2019-02-11T05:50:01.086Z,17
2019-02-11T05:51:01.088Z,16
2019-02-11T05:52:01.084Z,15
2019-02-11T05:53:01.114Z,17
2019-02-11T05:54:01.092Z,14
2019-02-11T05:56:01.089Z,16
2019-02-11T05:57:01.088Z,17
2019-02-11T05:58:01.117Z,16
2019-02-11T05:59:02.169Z,18
2019-02-11T06:00:01.090Z,18
2019-02-11T06:01:01.094Z,16
2019-02-11T06:02:01.086Z,17
2019-02-11T06:04:01.114Z,16
2019-02-11T06:05:01.093Z,17
2019-02-11T06:06:01.087Z,18
2019-02-11T06:07:01.194Z,17
2019-02-11T06:08:01.087Z,16
2019-02-11T06:09:01.129Z,18
2019-02-11T06:10:01.093Z,15
2019-02-11T06:14:01.089Z,13
2019-02-11T06:15:04.137Z,15
2019-02-11T06:16:01.089Z,17
2019-02-11T06:18:01.091Z,18
2019-02-11T06:19:01.093Z,17
2019-02-11T06:20:01.090Z,15
2019-02-11T06:23:01.087Z,14
2019-02-11T06:24:01.091Z,15
2019-02-11T06:25:01.086Z,18
2019-02-11T06:27:01.090Z,19
2019-02-11T06:28:01.087Z,20
2019-02-11T06:29:01.087Z,19
2019-02-11T06:30:01.087Z,18
2019-02-11T06:31:01.092Z,17
2019-02-11T06:32:01.089Z,16
2019-02-11T06:33:01.089Z,17
2019-02-11T06:35:06.103Z,18
2019-02-11T06:36:01.089Z,19
2019-02-11T06:38:01.102Z,18
2019-02-11T06:39:01.127Z,19
2019-02-11T06:40:01.091Z,18
2019-02-11T06:42:01.093Z,17
2019-02-11T06:45:02.325Z,18
2019-02-11T06:47:01.095Z,20
2019-02-11T06:48:01.091Z,18
2019-02-11T06:50:01.220Z,19
2019-02-11T06:51:01.091Z,18
2019-02-11T06:52:01.093Z,17
2019-02-11T06:53:01.163Z,18
2019-02-11T06:54:01.124Z,16
2019-02-11T06:55:01.093Z,13
2019-02-11T06:57:01.092Z,12
2019-02-11T06:58:01.522Z,11
2019-02-11T06:59:01.129Z,12
2019-02-11T07:00:01.095Z,12
2019-02-11T07:02:02.515Z,13
2019-02-11T07:03:01.094Z,15
2019-02-11T07:05:01.148Z,17
2019-02-11T07:07:01.095Z,16
2019-02-11T07:09:01.131Z,14
2019-02-11T07:12:01.079Z,15
2019-02-11T07:13:01.087Z,16
2019-02-11T07:15:01.079Z,18
2019-02-11T07:16:01.079Z,17
2019-02-11T07:20:01.082Z,16
2019-02-11T07:21:01.085Z,18
2019-02-11T07:23:01.085Z,17
2019-02-11T07:24:01.082Z,18
2019-02-11T07:25:01.086Z,19
2019-02-11T07:26:01.082Z,17
2019-02-11T07:27:01.082Z,16
2019-02-11T07:28:01.082Z,17
2019-02-11T07:29:01.082Z,18
2019-02-11T07:30:01.085Z,17
2019-02-11T07:31:01.079Z,16
2019-02-11T07:32:01.082Z,17
2019-02-11T07:34:01.082Z,15
2019-02-11T07:35:01.110Z,17
2019-02-11T07:38:03.166Z,16
2019-02-11T07:39:01.081Z,17
2019-02-11T07:42:01.090Z,16
2019-02-11T07:44:01.083Z,14
2019-02-11T07:45:06.091Z,14
2019-02-11T07:47:01.085Z,15
2019-02-11T07:48:01.084Z,14
2019-02-11T07:49:01.082Z,16
2019-02-11T07:51:01.083Z,15
2019-02-11T07:52:01.090Z,16
2019-02-11T07:55:01.087Z,14
2019-02-11T07:57:01.081Z,13
2019-02-11T07:58:01.088Z,14
2019-02-11T08:00:06.090Z,15
2019-02-11T08:01:01.084Z,14
2019-02-11T08:02:01.084Z,16
2019-02-11T08:04:01.091Z,17
2019-02-11T08:05:01.086Z,18
2019-02-11T08:06:01.088Z,19
2019-02-11T08:07:01.085Z,20
2019-02-11T08:09:01.085Z,19
2019-02-11T08:10:01.097Z,18
2019-02-11T08:12:01.087Z,17
2019-02-11T08:13:02.905Z,18
2019-02-11T08:14:01.088Z,19
2019-02-11T08:15:01.085Z,19
2019-02-11T08:16:01.088Z,18
2019-02-11T08:18:02.020Z,15
2019-02-11T08:19:01.087Z,14
2019-02-11T08:20:01.090Z,16
2019-02-11T08:21:01.086Z,18
2019-02-11T08:23:01.083Z,19
2019-02-11T08:24:01.082Z,20
2019-02-11T08:25:01.094Z,19
2019-02-11T08:26:01.083Z,20
2019-02-11T08:29:01.084Z,19
2019-02-11T08:30:01.087Z,18
2019-02-11T08:31:01.085Z,17
2019-02-11T08:32:01.084Z,18
2019-02-11T08:33:01.084Z,17
2019-02-11T08:35:06.111Z,18
2019-02-11T08:36:01.087Z,16
2019-02-11T08:37:01.085Z,17
2019-02-11T08:38:01.086Z,16
2019-02-11T08:39:06.089Z,18
2019-02-11T08:43:01.153Z,17
2019-02-11T08:45:01.108Z,17
2019-02-11T08:46:01.111Z,18
2019-02-11T08:50:01.088Z,19
2019-02-11T08:51:01.121Z,18
2019-02-11T08:52:02.095Z,19
2019-02-11T08:53:01.091Z,20
2019-02-11T08:54:01.090Z,19
2019-02-11T08:55:01.086Z,18
2019-02-11T08:56:03.376Z,17
2019-02-11T08:57:01.088Z,16
2019-02-11T08:59:01.088Z,15
2019-02-11T09:00:01.090Z,16
2019-02-11T09:01:01.088Z,18
2019-02-11T09:02:01.115Z,16
2019-02-11T09:03:01.091Z,15
2019-02-11T09:04:01.092Z,16
2019-02-11T09:05:01.090Z,13
2019-02-11T09:06:01.094Z,11
2019-02-11T09:07:01.119Z,12
2019-02-11T09:08:01.093Z,14
2019-02-11T09:09:01.095Z,13
2019-02-11T09:10:01.093Z,15
2019-02-11T09:11:01.116Z,18
2019-02-11T09:13:01.091Z,16
2019-02-11T09:14:01.092Z,17
2019-02-11T09:15:01.091Z,17
2019-02-11T09:16:01.117Z,16
2019-02-11T09:17:09.771Z,17
2019-02-11T09:18:01.094Z,19
2019-02-11T09:19:01.091Z,18
2019-02-11T09:20:01.093Z,19
2019-02-11T09:21:01.119Z,18
2019-02-11T09:22:07.239Z,17
2019-02-11T09:24:01.092Z,18
2019-02-11T09:25:01.966Z,17
2019-02-11T09:26:01.129Z,18
2019-02-11T09:27:01.098Z,20
2019-02-11T09:28:01.092Z,18
2019-02-11T09:29:01.091Z,19
2019-02-11T09:30:01.096Z,18
2019-02-11T09:31:01.124Z,20
2019-02-11T09:32:01.095Z,19
2019-02-11T09:36:01.125Z,17
2019-02-11T09:37:01.102Z,16
2019-02-11T09:38:01.091Z,15
2019-02-11T09:39:01.092Z,14
2019-02-11T09:41:01.135Z,16
2019-02-11T09:43:01.099Z,18
2019-02-11T09:45:01.105Z,18
2019-02-11T09:46:03.828Z,17
2019-02-11T09:48:01.093Z,16
2019-02-11T09:50:01.093Z,15
2019-02-11T09:51:01.123Z,14
2019-02-11T09:52:01.093Z,13
2019-02-11T09:56:01.120Z,14
2019-02-11T09:57:01.093Z,16
2019-02-11T09:58:01.094Z,17
2019-02-11T10:00:03.314Z,18
2019-02-11T10:01:01.122Z,17
2019-02-11T10:02:01.097Z,18
2019-02-11T10:03:01.128Z,17
2019-02-11T10:05:01.100Z,15
2019-02-11T10:07:01.096Z,14
2019-02-11T10:08:01.126Z,13
2019-02-11T10:09:01.097Z,14
2019-02-11T10:13:01.095Z,15
2019-02-11T10:14:01.095Z,13
2019-02-11T10:15:01.103Z,14
2019-02-11T10:17:01.097Z,15
2019-02-11T10:18:01.095Z,16
2019-02-11T10:19:01.104Z,17
2019-02-11T10:20:01.112Z,18
2019-02-11T10:23:01.082Z,15
2019-02-11T10:24:01.222Z,16
2019-02-11T10:27:01.083Z,18
2019-02-11T10:28:01.082Z,21
2019-02-11T10:29:02.074Z,19
2019-02-11T10:30:01.087Z,19
2019-02-11T10:31:01.084Z,20
2019-02-11T10:32:01.089Z,18
2019-02-11T10:33:01.091Z,16
2019-02-11T10:34:01.088Z,18
2019-02-11T10:35:01.082Z,17
2019-02-11T10:36:01.084Z,16
2019-02-11T10:37:01.549Z,17
2019-02-11T10:39:01.083Z,15
2019-02-11T10:41:01.084Z,17
2019-02-11T10:44:01.083Z,19
2019-02-11T10:45:01.087Z,17
2019-02-11T10:47:01.082Z,15
2019-02-11T10:48:01.082Z,14
2019-02-11T10:49:01.082Z,15
2019-02-11T10:51:01.083Z,16
2019-02-11T10:52:01.089Z,15
2019-02-11T10:53:01.084Z,16
2019-02-11T10:54:01.086Z,14
2019-02-11T10:55:02.119Z,15
2019-02-11T10:56:01.099Z,14
2019-02-11T10:57:01.088Z,15
2019-02-11T10:58:01.086Z,18
2019-02-11T10:59:01.085Z,17
2019-02-11T11:00:01.313Z,17
2019-02-11T11:02:01.121Z,15
2019-02-11T11:03:01.092Z,14
2019-02-11T11:04:01.087Z,16
2019-02-11T11:05:01.088Z,17
2019-02-11T11:07:01.088Z,19
2019-02-11T11:08:01.087Z,16
2019-02-11T11:10:01.088Z,14
2019-02-11T11:11:01.090Z,17
2019-02-11T11:13:01.088Z,19
2019-02-11T11:14:01.093Z,20
2019-02-11T11:15:06.094Z,20
2019-02-11T11:16:01.086Z,17
2019-02-11T11:18:01.087Z,16
2019-02-11T11:19:01.089Z,14
2019-02-11T11:20:01.092Z,16
2019-02-11T11:21:01.089Z,19
2019-02-11T11:22:01.089Z,18
2019-02-11T11:23:01.089Z,19
2019-02-11T11:24:01.087Z,20
2019-02-11T11:25:01.098Z,18
2019-02-11T11:26:01.089Z,17
2019-02-11T11:27:01.092Z,18
2019-02-11T11:28:01.087Z,17
2019-02-11T11:29:01.090Z,16
2019-02-11T11:30:01.099Z,15
2019-02-11T11:31:01.086Z,17
2019-02-11T11:33:01.087Z,18
2019-02-11T11:34:01.086Z,19
2019-02-11T11:35:01.132Z,20
2019-02-11T11:36:01.090Z,19
2019-02-11T11:37:01.089Z,18
2019-02-11T11:39:01.086Z,19
2019-02-11T11:40:01.085Z,17
2019-02-11T11:41:01.120Z,15
2019-02-11T11:43:01.090Z,16
2019-02-11T11:44:01.090Z,14
2019-02-11T11:45:01.091Z,14
2019-02-11T11:46:01.171Z,15
2019-02-11T11:48:01.086Z,14
2019-02-11T11:49:01.087Z,17
2019-02-11T11:50:01.088Z,18
2019-02-11T11:51:01.089Z,20
2019-02-11T11:52:01.119Z,19
2019-02-11T11:53:01.091Z,20
2019-02-11T11:54:01.087Z,18
2019-02-11T11:55:01.086Z,19
2019-02-11T11:56:02.198Z,18
2019-02-11T11:58:01.982Z,17
2019-02-11T11:59:01.093Z,16
2019-02-11T12:00:01.132Z,14
2019-02-11T12:01:01.102Z,13
2019-02-11T12:02:01.120Z,14
2019-02-11T12:03:03.834Z,15
2019-02-11T12:05:01.120Z,17
2019-02-11T12:08:01.111Z,18
2019-02-11T12:09:01.121Z,19
2019-02-11T12:11:01.094Z,18
2019-02-11T12:13:20.325Z,17
2019-02-11T12:14:06.081Z,16
2019-02-11T12:15:01.281Z,15
2019-02-11T12:16:01.103Z,16
2019-02-11T12:17:02.835Z,18
2019-02-11T12:18:01.232Z,17
2019-02-11T12:19:01.118Z,18
2019-02-11T12:20:01.091Z,19
2019-02-11T12:22:01.087Z,18
2019-02-11T12:24:01.121Z,19
2019-02-11T12:25:01.099Z,20
2019-02-11T12:26:01.097Z,19
2019-02-11T12:27:01.100Z,18
2019-02-11T12:29:01.133Z,17
2019-02-11T12:30:01.104Z,16
2019-02-11T12:31:01.101Z,15
2019-02-11T12:32:01.089Z,17
2019-02-11T12:33:01.252Z,16
2019-02-11T12:34:01.117Z,17
2019-02-11T12:35:01.096Z,18
2019-02-11T12:36:01.098Z,20
2019-02-11T12:37:01.093Z,19
2019-02-11T12:39:01.093Z,17
2019-02-11T12:40:01.095Z,15
2019-02-11T12:41:01.100Z,13
2019-02-11T12:42:01.100Z,12
2019-02-11T12:43:01.890Z,13
2019-02-11T12:44:01.095Z,16
2019-02-11T12:45:01.096Z,16
2019-02-11T12:46:01.094Z,17
2019-02-11T12:47:13.030Z,18
2019-02-11T12:49:01.795Z,16
2019-02-11T12:52:01.133Z,14
2019-02-11T12:53:01.147Z,15
2019-02-11T12:54:01.095Z,16
2019-02-11T12:56:02.377Z,17
2019-02-11T12:57:01.134Z,18
2019-02-11T12:58:01.100Z,16
2019-02-11T12:59:01.102Z,17
2019-02-11T13:00:01.113Z,17
2019-02-11T13:02:02.163Z,16
2019-02-11T13:03:01.118Z,17
2019-02-11T13:04:01.102Z,16
2019-02-11T13:06:01.086Z,18
2019-02-11T13:08:01.118Z,19
2019-02-11T13:09:01.106Z,21
2019-02-11T13:10:01.119Z,23
2019-02-11T13:11:01.115Z,22
2019-02-11T13:12:01.587Z,23
2019-02-11T13:14:01.086Z,21
2019-02-11T13:15:01.081Z,20
2019-02-11T13:16:02.954Z,19
2019-02-11T13:17:14.089Z,18
2019-02-11T13:18:01.243Z,17
2019-02-11T13:20:08.164Z,19
2019-02-11T13:21:01.087Z,18
2019-02-11T13:22:01.091Z,16
2019-02-11T13:23:01.087Z,17
2019-02-11T13:24:01.115Z,16
2019-02-11T13:25:01.095Z,15
2019-02-11T13:26:01.093Z,16
2019-02-11T13:27:01.103Z,17
2019-02-11T13:28:01.089Z,15
2019-02-11T13:29:01.123Z,16
2019-02-11T13:30:01.086Z,15
2019-02-11T13:31:01.090Z,14
2019-02-11T13:33:01.089Z,16
2019-02-11T13:35:01.094Z,17
2019-02-11T13:37:01.089Z,16
2019-02-11T13:39:01.087Z,15
2019-02-11T13:41:01.113Z,16
2019-02-11T13:42:02.068Z,15
2019-02-11T13:45:01.154Z,15
2019-02-11T13:46:01.090Z,14
2019-02-11T13:47:01.091Z,13
2019-02-11T13:51:01.114Z,14
2019-02-11T13:52:01.090Z,17
2019-02-11T13:53:01.090Z,16
2019-02-11T13:55:01.090Z,15
2019-02-11T13:56:04.627Z,16
2019-02-11T13:57:01.093Z,14
2019-02-11T13:58:01.085Z,15
2019-02-11T13:59:01.087Z,16
2019-02-11T14:00:01.095Z,18
2019-02-11T14:01:01.119Z,17
2019-02-11T14:02:01.793Z,19
2019-02-11T14:04:01.095Z,18
2019-02-11T14:06:01.129Z,19
2019-02-11T14:07:01.094Z,17
2019-02-11T14:08:01.090Z,16
2019-02-11T14:11:01.120Z,15
2019-02-11T14:13:01.086Z,17
2019-02-11T14:14:03.425Z,18
2019-02-11T14:15:01.087Z,17
2019-02-11T14:16:01.113Z,16
2019-02-11T14:18:11.394Z,15
2019-02-11T14:19:01.107Z,14
2019-02-11T14:20:01.090Z,15
2019-02-11T14:21:01.119Z,16
2019-02-11T14:22:01.098Z,17
2019-02-11T14:24:01.224Z,18
2019-02-11T14:26:01.091Z,17
2019-02-11T14:27:01.087Z,15
2019-02-11T14:28:01.113Z,14
2019-02-11T14:29:01.091Z,13
2019-02-11T14:30:01.102Z,14
2019-02-11T14:32:01.095Z,16
2019-02-11T14:33:01.096Z,17
2019-02-11T14:34:01.097Z,19
2019-02-11T14:35:01.093Z,20
2019-02-11T14:38:02.579Z,18
2019-02-11T14:39:01.090Z,19
2019-02-11T14:40:01.114Z,16
2019-02-11T14:44:01.083Z,15
2019-02-11T14:45:01.122Z,16
2019-02-11T14:48:01.098Z,17
2019-02-11T14:49:01.119Z,18
2019-02-11T14:50:01.151Z,17
2019-02-11T14:53:01.085Z,16
2019-02-11T14:55:01.085Z,17
2019-02-11T14:56:01.084Z,16
2019-02-11T14:58:01.083Z,17
2019-02-11T15:00:01.114Z,17
2019-02-11T15:01:01.101Z,18
2019-02-11T15:03:01.085Z,17
2019-02-11T15:04:01.086Z,16
2019-02-11T15:06:01.084Z,17
2019-02-11T15:07:02.340Z,16
2019-02-11T15:08:01.086Z,18
2019-02-11T15:09:01.084Z,21
2019-02-11T15:10:01.084Z,18
2019-02-11T15:11:01.084Z,17
2019-02-11T15:12:01.082Z,20
2019-02-11T15:13:01.082Z,19
2019-02-11T15:14:01.082Z,16
2019-02-11T15:15:01.092Z,18
2019-02-11T15:16:01.082Z,20
2019-02-11T15:17:01.083Z,18
2019-02-11T15:21:01.083Z,17
2019-02-11T15:24:01.086Z,19
2019-02-11T15:25:01.116Z,18
2019-02-11T15:26:02.162Z,17
2019-02-11T15:27:01.082Z,19
2019-02-11T15:29:01.089Z,17
2019-02-11T15:30:01.082Z,18
2019-02-11T15:32:01.083Z,17
2019-02-11T15:33:01.082Z,18
2019-02-11T15:34:01.085Z,17
2019-02-11T15:35:01.085Z,20
2019-02-11T15:36:01.172Z,19
2019-02-11T15:37:01.083Z,18
2019-02-11T15:38:01.084Z,17
2019-02-11T15:39:01.092Z,18
2019-02-11T15:40:01.086Z,15
2019-02-11T15:41:01.082Z,16
2019-02-11T15:42:01.955Z,17
2019-02-11T15:45:01.083Z,17
2019-02-11T15:46:01.083Z,18
2019-02-11T15:47:01.090Z,17
2019-02-11T15:48:01.084Z,16
2019-02-11T15:49:01.083Z,14
2019-02-11T15:50:01.086Z,15
2019-02-11T15:51:01.090Z,14
2019-02-11T15:52:01.085Z,13
2019-02-11T15:53:01.087Z,17
2019-02-11T15:54:01.083Z,19
2019-02-11T15:55:01.083Z,18
2019-02-11T15:57:01.084Z,20
2019-02-11T15:58:01.089Z,18
2019-02-11T16:00:01.084Z,20
2019-02-11T16:01:01.084Z,19
2019-02-11T16:02:01.086Z,17
2019-02-11T16:04:01.084Z,16
2019-02-11T16:05:02.491Z,14
2019-02-11T16:06:10.046Z,15
2019-02-11T16:07:02.302Z,16
2019-02-11T16:08:01.084Z,17
2019-02-11T16:09:04.440Z,18
2019-02-11T16:10:01.083Z,19
2019-02-11T16:13:01.085Z,17
2019-02-11T16:15:01.086Z,14
2019-02-11T16:16:06.090Z,15
2019-02-11T16:17:01.082Z,16
2019-02-11T16:18:01.104Z,17
2019-02-11T16:19:01.085Z,16
2019-02-11T16:20:01.084Z,18
2019-02-11T16:21:01.109Z,17
2019-02-11T16:22:01.082Z,15
2019-02-11T16:23:02.101Z,16
2019-02-11T16:25:01.087Z,17
2019-02-11T16:26:01.109Z,18
2019-02-11T16:27:01.083Z,17
2019-02-11T16:28:01.104Z,16
2019-02-11T16:29:01.086Z,17
2019-02-11T16:30:01.087Z,14
2019-02-11T16:31:01.110Z,13
2019-02-11T16:32:01.179Z,14
2019-02-11T16:33:01.544Z,16
2019-02-11T16:36:01.111Z,15
2019-02-11T16:37:01.084Z,14
2019-02-11T16:38:01.085Z,12
2019-02-11T16:40:01.113Z,14
2019-02-11T16:42:01.084Z,15
2019-02-11T16:43:01.086Z,16
2019-02-11T16:44:01.086Z,17
2019-02-11T16:45:01.123Z,15
2019-02-11T16:47:01.086Z,16
2019-02-11T16:49:01.089Z,15
2019-02-11T16:51:01.114Z,16
2019-02-11T16:52:01.093Z,14
2019-02-11T16:53:01.094Z,13
2019-02-11T16:55:01.122Z,14
2019-02-11T16:56:01.089Z,15
2019-02-11T16:57:01.089Z,14
2019-02-11T17:00:01.144Z,15
2019-02-11T17:01:01.089Z,13
2019-02-11T17:02:01.088Z,14
2019-02-11T17:04:01.446Z,13
2019-02-11T17:05:01.121Z,14
2019-02-11T17:06:01.088Z,16
2019-02-11T17:07:01.089Z,18
2019-02-11T17:08:06.092Z,20
2019-02-11T17:09:01.093Z,22
2019-02-11T17:10:01.123Z,19
2019-02-11T17:11:01.089Z,17
2019-02-11T17:13:01.095Z,16
2019-02-11T17:14:01.090Z,17
2019-02-11T17:15:01.124Z,18
2019-02-11T17:17:01.090Z,17
2019-02-11T17:18:01.096Z,18
2019-02-11T17:19:08.804Z,16
2019-02-11T17:20:01.122Z,17
2019-02-11T17:21:01.092Z,19
2019-02-11T17:22:01.091Z,18
2019-02-11T17:27:01.090Z,17
2019-02-11T17:29:02.138Z,18
2019-02-11T17:30:01.126Z,17
2019-02-11T17:32:01.095Z,16
2019-02-11T17:34:01.094Z,14
2019-02-11T17:37:01.117Z,15
2019-02-11T17:38:01.094Z,17
2019-02-11T17:40:01.091Z,15
2019-02-11T17:42:01.117Z,16
2019-02-11T17:43:01.090Z,14
2019-02-11T17:44:01.091Z,15
2019-02-11T17:45:01.091Z,17
2019-02-11T17:47:01.120Z,18
2019-02-11T17:49:02.763Z,20
2019-02-11T17:50:01.091Z,18
2019-02-11T17:51:01.130Z,19
2019-02-11T17:52:01.099Z,16
2019-02-11T17:53:01.091Z,18
2019-02-11T17:54:01.097Z,16
2019-02-11T17:55:01.091Z,19
2019-02-11T17:56:01.127Z,18
2019-02-11T17:59:01.091Z,17
2019-02-11T18:00:01.096Z,14
2019-02-11T18:01:01.118Z,15
2019-02-11T18:02:01.093Z,16
2019-02-11T18:05:01.129Z,15
2019-02-11T18:09:01.091Z,16
2019-02-11T18:10:01.125Z,19
2019-02-11T18:12:02.165Z,20
2019-02-11T18:13:01.090Z,19
2019-02-11T18:14:01.091Z,18
2019-02-11T18:15:01.178Z,16
2019-02-11T18:16:01.091Z,15
2019-02-11T18:17:01.093Z,14
2019-02-11T18:18:01.095Z,15
2019-02-11T18:19:01.092Z,14
2019-02-11T18:20:01.117Z,15
2019-02-11T18:23:01.095Z,17
2019-02-11T18:24:01.092Z,18
2019-02-11T18:26:01.092Z,17
2019-02-11T18:27:01.094Z,19
2019-02-11T18:28:01.090Z,18
2019-02-11T18:29:01.091Z,17
2019-02-11T18:30:01.115Z,16
2019-02-11T18:31:01.091Z,18
2019-02-11T18:32:01.092Z,16
2019-02-11T18:35:01.264Z,17
2019-02-11T18:36:01.092Z,15
2019-02-11T18:37:01.363Z,17
2019-02-11T18:38:01.092Z,16
2019-02-11T18:45:01.123Z,17
2019-02-11T18:47:01.128Z,16
2019-02-11T18:48:01.097Z,18
2019-02-11T18:49:01.098Z,17
2019-02-11T18:51:01.096Z,16
2019-02-11T18:52:01.130Z,17
2019-02-11T18:53:01.093Z,16
2019-02-11T18:55:01.078Z,17
2019-02-11T18:56:01.074Z,18
2019-02-11T18:58:01.079Z,19
2019-02-11T18:59:01.075Z,20
2019-02-11T19:00:02.209Z,18
2019-02-11T19:01:01.076Z,17
2019-02-11T19:03:01.075Z,15
2019-02-11T19:04:01.079Z,14
2019-02-11T19:05:01.083Z,15
2019-02-11T19:07:01.075Z,14
2019-02-11T19:08:01.102Z,15
2019-02-11T19:11:01.101Z,17
2019-02-11T19:12:01.087Z,16
2019-02-11T19:13:01.073Z,18
2019-02-11T19:15:01.074Z,18
2019-02-11T19:16:01.102Z,17
2019-02-11T19:18:01.076Z,18
2019-02-11T19:19:01.077Z,20
2019-02-11T19:21:02.025Z,19
2019-02-11T19:23:01.814Z,15
2019-02-11T19:24:01.075Z,14
2019-02-11T19:26:01.076Z,15
2019-02-11T19:27:01.413Z,16
2019-02-11T19:29:01.074Z,15
2019-02-11T19:30:01.075Z,16
2019-02-11T19:31:01.075Z,15
2019-02-11T19:33:01.076Z,16
2019-02-11T19:34:01.081Z,17
2019-02-11T19:35:01.075Z,15
2019-02-11T19:36:01.074Z,17
2019-02-11T19:37:01.075Z,16
2019-02-11T19:39:01.077Z,17
2019-02-11T19:40:01.107Z,18
2019-02-11T19:42:01.077Z,19
2019-02-11T19:43:01.117Z,18
2019-02-11T19:44:01.076Z,19
2019-02-11T19:45:01.077Z,17
2019-02-11T19:46:06.080Z,16
2019-02-11T19:47:01.077Z,15
2019-02-11T19:49:02.062Z,13
2019-02-11T19:51:01.077Z,14
2019-02-11T19:52:01.078Z,17
2019-02-11T19:53:01.082Z,18
2019-02-11T19:54:01.079Z,19
2019-02-11T19:55:01.116Z,21
2019-02-11T19:56:01.077Z,20
2019-02-11T19:57:01.078Z,17
2019-02-11T19:58:01.080Z,16
2019-02-11T20:00:01.079Z,16